Time;durP1;ratioP1;P1;durP2;ratioP2;P2;SDS_P1;SDS_P2;PMS_P1;PMS_P2;Temp;Humidity;BMP_temperature;BMP_pressure;BME280_temperature;BME280_humidity;BME280_pressure;Samples;Min_cycle;Max_cycle;Signal;HPM_P1;HPM_P2
2022/09/30 00:00:06;;;;;;;9.65;8.85;;;;;;;;;;5049917;28;25254;-47
2022/09/30 00:02:31;;;;;;;8.40;7.80;;;;;;;;;;5061582;28;24417;-47
2022/09/30 00:04:56;;;;;;;9.10;8.40;;;;;;;;;;5066243;28;24426;-47
2022/09/30 00:07:22;;;;;;;9.70;9.00;;;;;;;;;;5057356;28;24438;-46
2022/09/30 00:09:48;;;;;;;9.02;8.32;;;;;;;;;;5056324;28;24419;-46
2022/09/30 00:12:13;;;;;;;8.80;8.10;;;;;;;;;;5059382;28;24488;-46
2022/09/30 00:14:38;;;;;;;9.30;8.60;;;;;;;;;;5063731;28;24415;-46
2022/09/30 00:17:03;;;;;;;9.40;8.70;;;;;;;;;;5063491;28;24783;-47
2022/09/30 00:19:28;;;;;;;8.70;8.10;;;;;;;;;;5066649;28;24407;-46
2022/09/30 00:21:53;;;;;;;9.50;8.70;;;;;;;;;;5058174;28;24514;-46
2022/09/30 00:24:19;;;;;;;9.25;8.55;;;;;;;;;;5057345;28;24473;-46
2022/09/30 00:26:44;;;;;;;8.80;8.20;;;;;;;;;;5055743;28;24431;-46
2022/09/30 00:29:09;;;;;;;9.70;9.00;;;;;;;;;;5066373;28;24485;-46
2022/09/30 00:31:35;;;;;;;8.80;8.20;;;;;;;;;;5058807;28;24458;-48
2022/09/30 00:34:06;;;;;;;9.37;8.77;;;;;;;;;;5067001;28;24431;-46
2022/09/30 00:36:33;;;;;;;10.00;9.30;;;;;;;;;;5060109;28;24810;-46
2022/09/30 00:38:58;;;;;;;9.30;8.60;;;;;;;;;;5062450;28;24448;-46
2022/09/30 00:41:23;;;;;;;9.20;8.60;;;;;;;;;;5053121;28;24431;-46
2022/09/30 00:43:52;;;;;;;10.30;9.60;;;;;;;;;;5049893;28;24431;-46
2022/09/30 00:46:31;;;;;;;9.63;8.93;;;;;;;;;;5060473;28;25042;-48
2022/09/30 00:48:59;;;;;;;10.98;10.18;;;;;;;;;;5056734;28;25049;-46
2022/09/30 00:51:29;;;;;;;9.82;9.13;;;;;;;;;;5055095;28;24960;-47
2022/09/30 00:53:56;;;;;;;9.93;9.23;;;;;;;;;;5065911;28;24840;-46
2022/09/30 00:56:23;;;;;;;10.10;9.40;;;;;;;;;;5057203;28;24443;-46
2022/09/30 00:58:59;;;;;;;10.00;9.30;;;;;;;;;;5058152;28;24510;-47
2022/09/30 01:01:24;;;;;;;10.00;9.27;;;;;;;;;;5054756;28;24430;-47
2022/09/30 01:03:52;;;;;;;9.67;8.97;;;;;;;;;;5064477;28;24430;-47
2022/09/30 01:06:19;;;;;;;9.70;9.00;;;;;;;;;;5064570;28;24426;-46
2022/09/30 01:08:45;;;;;;;10.40;9.60;;;;;;;;;;5062959;28;24426;-47
2022/09/30 01:11:11;;;;;;;9.70;9.00;;;;;;;;;;5050915;28;24990;-46
2022/09/30 01:13:37;;;;;;;11.48;10.68;;;;;;;;;;5054536;28;24427;-46
2022/09/30 01:16:05;;;;;;;10.77;9.93;;;;;;;;;;5054644;28;24538;-47
2022/09/30 01:18:40;;;;;;;10.55;9.80;;;;;;;;;;5058308;28;24999;-46
2022/09/30 01:21:23;;;;;;;10.48;9.50;;;;;;;;;;5065940;28;24434;-47
2022/09/30 01:23:57;;;;;;;10.35;9.55;;;;;;;;;;5055231;28;24435;-47
2022/09/30 01:26:22;;;;;;;10.18;9.48;;;;;;;;;;5064156;28;24504;-47
2022/09/30 01:29:07;;;;;;;10.00;9.30;;;;;;;;;;5060578;28;24430;-47
2022/09/30 01:31:42;;;;;;;10.00;9.30;;;;;;;;;;5049332;28;24510;-48
2022/09/30 01:34:07;;;;;;;10.25;9.45;;;;;;;;;;5054884;28;24449;-46
2022/09/30 01:37:01;;;;;;;9.88;9.07;;;;;;;;;;5053935;28;24463;-46
2022/09/30 01:39:36;;;;;;;10.55;9.85;;;;;;;;;;5040332;28;24777;-45
2022/09/30 01:42:20;;;;;;;10.75;9.95;;;;;;;;;;5061086;28;24422;-47
2022/09/30 01:44:49;;;;;;;10.35;9.55;;;;;;;;;;5062386;28;24426;-44
2022/09/30 01:47:20;;;;;;;10.80;10.00;;;;;;;;;;5062851;28;25056;-45
2022/09/30 01:49:46;;;;;;;10.77;9.98;;;;;;;;;;5060189;28;24492;-44
2022/09/30 01:52:16;;;;;;;11.20;10.20;;;;;;;;;;5057021;28;24550;-44
2022/09/30 01:54:45;;;;;;;10.80;10.00;;;;;;;;;;5055176;28;25230;-45
2022/09/30 01:57:28;;;;;;;10.40;9.70;;;;;;;;;;5053077;28;24519;-46
2022/09/30 01:59:56;;;;;;;9.90;9.20;;;;;;;;;;5051676;28;24991;-46
2022/09/30 02:02:21;;;;;;;11.00;10.20;;;;;;;;;;5060477;28;24423;-47
2022/09/30 02:04:52;;;;;;;11.05;10.25;;;;;;;;;;5064531;28;24471;-45
2022/09/30 02:07:23;;;;;;;10.50;9.80;;;;;;;;;;5057099;28;24434;-46
2022/09/30 02:09:52;;;;;;;10.18;9.40;;;;;;;;;;5054518;28;24460;-46
2022/09/30 02:12:19;;;;;;;11.50;10.70;;;;;;;;;;5055590;28;25262;-45
2022/09/30 02:14:54;;;;;;;11.15;10.25;;;;;;;;;;5064431;28;24817;-46
2022/09/30 02:17:22;;;;;;;10.10;9.40;;;;;;;;;;5058217;28;26428;-47
2022/09/30 02:19:52;;;;;;;10.47;9.67;;;;;;;;;;5070594;28;24494;-46
2022/09/30 02:22:18;;;;;;;10.50;9.80;;;;;;;;;;5066575;28;25093;-47
2022/09/30 02:24:44;;;;;;;10.05;9.35;;;;;;;;;;5069105;28;24422;-46
2022/09/30 02:27:13;;;;;;;10.60;9.80;;;;;;;;;;5066105;28;24953;-46
2022/09/30 02:29:41;;;;;;;10.27;9.48;;;;;;;;;;5066360;28;25290;-46
2022/09/30 02:32:14;;;;;;;10.57;9.77;;;;;;;;;;5058030;28;24516;-46
2022/09/30 02:34:40;;;;;;;9.50;8.80;;;;;;;;;;5062800;28;24441;-46
2022/09/30 02:37:08;;;;;;;10.38;9.68;;;;;;;;;;5063332;28;24417;-47
2022/09/30 02:39:52;;;;;;;10.63;9.90;;;;;;;;;;5062345;28;24450;-46
2022/09/30 02:42:20;;;;;;;10.20;9.50;;;;;;;;;;5057854;28;24850;-47
2022/09/30 02:44:47;;;;;;;9.65;8.95;;;;;;;;;;5067546;28;24600;-47
2022/09/30 02:47:12;;;;;;;10.30;9.50;;;;;;;;;;5064397;28;24494;-47
2022/09/30 02:49:45;;;;;;;9.90;9.20;;;;;;;;;;5053493;28;24546;-47
2022/09/30 02:52:23;;;;;;;10.55;9.75;;;;;;;;;;5059380;28;24411;-47
2022/09/30 02:55:06;;;;;;;9.60;8.90;;;;;;;;;;5067048;28;24458;-47
2022/09/30 02:57:38;;;;;;;10.23;9.43;;;;;;;;;;5051194;28;24426;-46
2022/09/30 03:00:04;;;;;;;10.05;9.32;;;;;;;;;;5060866;28;24425;-48
2022/09/30 03:02:29;;;;;;;10.30;9.50;;;;;;;;;;5065816;28;24517;-46
2022/09/30 03:04:54;;;;;;;9.40;8.70;;;;;;;;;;5055523;28;24411;-47
2022/09/30 03:07:19;;;;;;;10.43;9.70;;;;;;;;;;5056255;28;24476;-47
2022/09/30 03:09:45;;;;;;;10.50;9.70;;;;;;;;;;5057581;28;25048;-47
2022/09/30 03:12:10;;;;;;;11.20;10.30;;;;;;;;;;5056045;28;24426;-48
2022/09/30 03:14:42;;;;;;;10.60;9.68;;;;;;;;;;5057339;28;24525;-47
2022/09/30 03:17:24;;;;;;;10.60;9.80;;;;;;;;;;5066228;28;24451;-47
2022/09/30 03:19:52;;;;;;;10.57;9.77;;;;;;;;;;5067502;28;24427;-45
2022/09/30 03:22:34;;;;;;;11.20;10.30;;;;;;;;;;5058331;28;24667;-46
2022/09/30 03:25:18;;;;;;;11.98;11.07;;;;;;;;;;5056894;28;24452;-46
2022/09/30 03:27:59;;;;;;;12.07;11.18;;;;;;;;;;5060887;28;25042;-47
2022/09/30 03:30:25;;;;;;;11.95;10.95;;;;;;;;;;5056387;28;24442;-46
2022/09/30 03:32:51;;;;;;;11.10;10.30;;;;;;;;;;5059447;28;24778;-46
2022/09/30 03:35:21;;;;;;;12.18;11.18;;;;;;;;;;5058908;28;25155;-47
2022/09/30 03:37:59;;;;;;;11.40;10.50;;;;;;;;;;5065806;28;24418;-46
2022/09/30 03:40:31;;;;;;;12.40;11.30;;;;;;;;;;5066678;28;24415;-48
2022/09/30 03:43:02;;;;;;;11.10;10.30;;;;;;;;;;5066753;28;24422;-47
2022/09/30 03:45:40;;;;;;;10.30;9.60;;;;;;;;;;5055884;28;24439;-47
2022/09/30 03:48:07;;;;;;;12.15;11.20;;;;;;;;;;5061425;28;24513;-47
2022/09/30 03:50:34;;;;;;;12.43;11.32;;;;;;;;;;5066617;28;24427;-47
2022/09/30 03:52:59;;;;;;;12.50;11.50;;;;;;;;;;5063503;28;24472;-47
2022/09/30 03:55:25;;;;;;;11.60;10.70;;;;;;;;;;5055942;28;24534;-47
2022/09/30 03:57:51;;;;;;;11.90;11.00;;;;;;;;;;5066649;28;24414;-47
2022/09/30 04:00:16;;;;;;;11.07;10.27;;;;;;;;;;5062098;28;24417;-48
2022/09/30 04:02:41;;;;;;;10.82;10.02;;;;;;;;;;5063992;28;24509;-47
2022/09/30 04:05:07;;;;;;;11.47;10.63;;;;;;;;;;5064926;28;24419;-48
2022/09/30 04:07:33;;;;;;;10.70;9.90;;;;;;;;;;5060872;28;24840;-48
2022/09/30 04:09:58;;;;;;;11.25;10.45;;;;;;;;;;5058879;28;24473;-47
2022/09/30 04:12:23;;;;;;;11.30;10.40;;;;;;;;;;5060109;28;24540;-47
2022/09/30 04:14:48;;;;;;;12.50;11.50;;;;;;;;;;5057284;28;24460;-46
2022/09/30 04:17:13;;;;;;;11.10;10.20;;;;;;;;;;5058928;28;24438;-47
2022/09/30 04:19:39;;;;;;;12.73;11.63;;;;;;;;;;5058321;28;24510;-45
2022/09/30 04:22:05;;;;;;;11.90;10.90;;;;;;;;;;5054918;28;24480;-46
2022/09/30 04:24:30;;;;;;;13.10;12.00;;;;;;;;;;5050620;28;25022;-46
2022/09/30 04:26:55;;;;;;;12.83;11.83;;;;;;;;;;5055227;28;24516;-45
2022/09/30 04:29:20;;;;;;;12.90;11.90;;;;;;;;;;5051457;28;24431;-46
2022/09/30 04:31:46;;;;;;;13.38;12.32;;;;;;;;;;5054180;28;24419;-45
2022/09/30 04:34:11;;;;;;;13.10;12.10;;;;;;;;;;5065168;28;24492;-46
2022/09/30 04:36:36;;;;;;;12.67;11.67;;;;;;;;;;5058172;28;24431;-46
2022/09/30 04:39:01;;;;;;;14.00;12.80;;;;;;;;;;5062023;28;24517;-46
2022/09/30 04:41:28;;;;;;;14.70;13.60;;;;;;;;;;5063566;28;25030;-46
2022/09/30 04:43:54;;;;;;;13.88;12.77;;;;;;;;;;5063848;28;24972;-46
2022/09/30 04:46:20;;;;;;;14.80;13.60;;;;;;;;;;5063589;28;24432;-46
2022/09/30 04:48:45;;;;;;;16.42;15.13;;;;;;;;;;5060482;28;25101;-46
2022/09/30 04:51:11;;;;;;;17.40;16.00;;;;;;;;;;5061128;28;24648;-46
2022/09/30 04:53:37;;;;;;;18.23;16.73;;;;;;;;;;5064491;28;24423;-47
2022/09/30 04:56:02;;;;;;;18.07;16.47;;;;;;;;;;5061955;28;24472;-46
2022/09/30 04:58:28;;;;;;;15.80;14.50;;;;;;;;;;5056048;28;24427;-47
2022/09/30 05:01:09;;;;;;;18.37;16.87;;;;;;;;;;5053902;28;24468;-47
2022/09/30 05:03:34;;;;;;;17.42;15.93;;;;;;;;;;5062179;28;25286;-47
2022/09/30 05:06:00;;;;;;;16.83;15.30;;;;;;;;;;5064543;28;24402;-46
2022/09/30 05:08:25;;;;;;;17.50;16.00;;;;;;;;;;5060336;28;24991;-47
2022/09/30 05:10:58;;;;;;;17.40;16.00;;;;;;;;;;5056506;28;24477;-48
2022/09/30 05:13:24;;;;;;;16.55;15.25;;;;;;;;;;5058500;28;24427;-47
2022/09/30 05:15:49;;;;;;;16.73;15.32;;;;;;;;;;5053348;28;25178;-48
2022/09/30 05:18:15;;;;;;;16.83;15.43;;;;;;;;;;5057732;28;24438;-48
2022/09/30 05:20:40;;;;;;;16.93;15.53;;;;;;;;;;5059063;28;24482;-48
2022/09/30 05:23:05;;;;;;;16.57;15.17;;;;;;;;;;5061815;28;24518;-48
2022/09/30 05:25:31;;;;;;;16.85;15.55;;;;;;;;;;5061663;28;24544;-48
2022/09/30 05:27:56;;;;;;;16.37;15.07;;;;;;;;;;5066396;28;24454;-45
2022/09/30 05:30:21;;;;;;;14.97;13.77;;;;;;;;;;5067037;28;24397;-48
2022/09/30 05:32:46;;;;;;;17.60;16.10;;;;;;;;;;5065253;28;25034;-47
2022/09/30 05:35:11;;;;;;;15.80;14.60;;;;;;;;;;5066589;28;24438;-47
2022/09/30 05:37:37;;;;;;;15.00;13.90;;;;;;;;;;5065319;28;24510;-48
2022/09/30 05:40:02;;;;;;;17.00;15.60;;;;;;;;;;5065819;28;25321;-48
2022/09/30 05:42:29;;;;;;;15.97;14.67;;;;;;;;;;5065269;28;24422;-49
2022/09/30 05:44:54;;;;;;;15.85;14.65;;;;;;;;;;5050029;28;24418;-48
2022/09/30 05:47:19;;;;;;;16.10;14.70;;;;;;;;;;5060826;28;24429;-49
2022/09/30 05:49:45;;;;;;;16.03;14.73;;;;;;;;;;5054224;28;25003;-47
2022/09/30 05:52:13;;;;;;;15.57;14.27;;;;;;;;;;5063015;28;24415;-47
2022/09/30 05:54:39;;;;;;;14.80;13.60;;;;;;;;;;5063318;28;24434;-48
2022/09/30 05:57:04;;;;;;;14.80;13.60;;;;;;;;;;5064278;28;24514;-47
2022/09/30 05:59:29;;;;;;;14.95;13.75;;;;;;;;;;5058723;28;24522;-49
2022/09/30 06:01:54;;;;;;;14.40;13.20;;;;;;;;;;5056475;28;24433;-47
2022/09/30 06:04:21;;;;;;;14.45;13.18;;;;;;;;;;5059887;28;24964;-48
2022/09/30 06:06:47;;;;;;;16.80;15.45;;;;;;;;;;5062254;28;24443;-47
2022/09/30 06:09:12;;;;;;;13.98;12.88;;;;;;;;;;5063492;28;25161;-47
2022/09/30 06:11:37;;;;;;;15.25;13.98;;;;;;;;;;5058486;28;24438;-47
2022/09/30 06:14:03;;;;;;;15.20;13.90;;;;;;;;;;5057163;28;25206;-47
2022/09/30 06:16:30;;;;;;;14.30;13.20;;;;;;;;;;5048293;28;24529;-47
2022/09/30 06:18:59;;;;;;;14.48;13.38;;;;;;;;;;5053175;28;24821;-47
2022/09/30 06:21:24;;;;;;;16.07;14.57;;;;;;;;;;5063664;28;24434;-47
2022/09/30 06:23:49;;;;;;;15.03;13.83;;;;;;;;;;5063983;28;24449;-47
2022/09/30 06:26:15;;;;;;;13.10;12.10;;;;;;;;;;5065368;28;24423;-47
2022/09/30 06:28:41;;;;;;;13.00;12.00;;;;;;;;;;5065223;28;24870;-47
2022/09/30 06:31:06;;;;;;;12.20;11.30;;;;;;;;;;5065743;28;24501;-47
2022/09/30 06:33:32;;;;;;;12.15;11.20;;;;;;;;;;5063542;28;25315;-47
2022/09/30 06:35:57;;;;;;;12.43;11.50;;;;;;;;;;5065363;28;24801;-47
2022/09/30 06:38:22;;;;;;;13.40;12.30;;;;;;;;;;5065776;28;24802;-46
2022/09/30 06:40:48;;;;;;;13.87;12.77;;;;;;;;;;5065447;28;24446;-47
2022/09/30 06:43:14;;;;;;;12.38;11.38;;;;;;;;;;5065811;28;24484;-46
2022/09/30 06:45:39;;;;;;;13.13;12.02;;;;;;;;;;5064771;28;24426;-46
2022/09/30 06:48:05;;;;;;;13.27;12.27;;;;;;;;;;5065317;28;24455;-47
2022/09/30 06:50:30;;;;;;;12.40;11.40;;;;;;;;;;5065256;28;24793;-47
2022/09/30 06:52:58;;;;;;;13.38;12.25;;;;;;;;;;5064912;28;25080;-47
2022/09/30 06:55:23;;;;;;;11.98;11.07;;;;;;;;;;5066165;28;24923;-46
2022/09/30 06:57:48;;;;;;;12.30;11.40;;;;;;;;;;5065021;28;24545;-50
2022/09/30 07:00:15;;;;;;;12.20;11.30;;;;;;;;;;5069219;28;24956;-46
2022/09/30 07:02:40;;;;;;;10.73;9.82;;;;;;;;;;5068966;28;24774;-46
2022/09/30 07:05:05;;;;;;;11.13;10.17;;;;;;;;;;5069958;28;24391;-47
2022/09/30 07:07:33;;;;;;;11.27;10.37;;;;;;;;;;5067964;28;24552;-47
2022/09/30 07:09:58;;;;;;;10.90;10.00;;;;;;;;;;5068842;28;24510;-47
2022/09/30 07:12:23;;;;;;;10.68;9.88;;;;;;;;;;5068911;28;24939;-46
2022/09/30 07:14:50;;;;;;;9.60;8.90;;;;;;;;;;5068628;28;24438;-47
2022/09/30 07:17:15;;;;;;;9.80;9.10;;;;;;;;;;5068504;28;24418;-47
2022/09/30 07:19:40;;;;;;;10.27;9.47;;;;;;;;;;5068855;28;24430;-47
2022/09/30 07:24:49;;;;;;;9.00;8.20;;;;;;;;;;5068495;28;24394;-47
2022/09/30 07:27:14;;;;;;;8.40;7.80;;;;;;;;;;5068541;28;24427;-46
2022/09/30 07:29:40;;;;;;;9.70;8.80;;;;;;;;;;5068663;28;24397;-47
2022/09/30 07:32:05;;;;;;;8.80;8.20;;;;;;;;;;5068203;28;24525;-47
2022/09/30 07:34:30;;;;;;;9.63;8.90;;;;;;;;;;5069380;28;24990;-46
2022/09/30 07:36:55;;;;;;;10.70;9.90;;;;;;;;;;5068871;28;24492;-47
2022/09/30 07:39:21;;;;;;;8.77;8.10;;;;;;;;;;5068391;28;24437;-47
2022/09/30 07:41:46;;;;;;;8.50;7.75;;;;;;;;;;5067705;28;24427;-46
2022/09/30 07:44:13;;;;;;;10.60;9.80;;;;;;;;;;5069391;28;24959;-47
2022/09/30 07:46:39;;;;;;;10.05;9.25;;;;;;;;;;5067368;28;24429;-47
2022/09/30 07:49:06;;;;;;;8.55;7.85;;;;;;;;;;5067967;28;24525;-47
2022/09/30 07:51:33;;;;;;;8.10;7.40;;;;;;;;;;5067730;28;24398;-47
2022/09/30 07:54:04;;;;;;;8.90;8.20;;;;;;;;;;5067650;28;24522;-46
2022/09/30 07:56:29;;;;;;;9.25;8.45;;;;;;;;;;5067929;28;24450;-47
2022/09/30 07:58:55;;;;;;;8.77;8.07;;;;;;;;;;5062101;28;24458;-46
2022/09/30 08:01:21;;;;;;;8.07;7.47;;;;;;;;;;5064636;28;24507;-46
2022/09/30 08:03:46;;;;;;;8.40;7.70;;;;;;;;;;5063173;28;24442;-47
2022/09/30 08:06:13;;;;;;;9.38;8.57;;;;;;;;;;5056637;28;24427;-48
2022/09/30 08:08:38;;;;;;;8.30;7.70;;;;;;;;;;5055025;28;24457;-46
2022/09/30 08:11:04;;;;;;;8.87;8.20;;;;;;;;;;5055891;28;25212;-48
2022/09/30 08:13:30;;;;;;;9.77;8.98;;;;;;;;;;5066107;28;24545;-47
2022/09/30 08:15:55;;;;;;;8.10;7.50;;;;;;;;;;5059415;28;24430;-48
2022/09/30 08:18:20;;;;;;;8.63;7.93;;;;;;;;;;5062931;28;24435;-47
2022/09/30 08:20:45;;;;;;;7.40;6.70;;;;;;;;;;5060812;28;24480;-47
2022/09/30 08:23:10;;;;;;;7.70;7.10;;;;;;;;;;5063401;28;25019;-47
2022/09/30 08:25:35;;;;;;;7.60;7.00;;;;;;;;;;5065409;28;24469;-45
2022/09/30 08:28:01;;;;;;;7.03;6.43;;;;;;;;;;5067382;28;24995;-46
2022/09/30 08:30:26;;;;;;;8.30;7.70;;;;;;;;;;5051159;28;24422;-47
2022/09/30 08:32:51;;;;;;;7.37;6.80;;;;;;;;;;5060617;28;24954;-47
2022/09/30 08:35:16;;;;;;;7.37;6.77;;;;;;;;;;5064781;28;24507;-47
2022/09/30 08:37:41;;;;;;;7.68;7.07;;;;;;;;;;5059925;28;24422;-47
2022/09/30 08:40:15;;;;;;;8.57;7.77;;;;;;;;;;5066608;28;25001;-48
2022/09/30 08:42:47;;;;;;;7.10;6.60;;;;;;;;;;5061973;28;24419;-47
2022/09/30 08:45:21;;;;;;;7.70;7.10;;;;;;;;;;5066485;28;24861;-48
2022/09/30 08:47:50;;;;;;;7.18;6.57;;;;;;;;;;5060425;28;24426;-47
2022/09/30 08:50:25;;;;;;;6.75;6.25;;;;;;;;;;5051140;28;25096;-47
2022/09/30 08:52:52;;;;;;;6.80;6.20;;;;;;;;;;5053756;28;24852;-47
2022/09/30 08:55:20;;;;;;;6.95;6.35;;;;;;;;;;5051930;28;24486;-47
2022/09/30 08:57:46;;;;;;;8.38;7.68;;;;;;;;;;5066256;28;24816;-48
2022/09/30 09:00:12;;;;;;;6.97;6.47;;;;;;;;;;5058125;28;25115;-48
2022/09/30 09:02:56;;;;;;;8.27;7.57;;;;;;;;;;5059763;28;24422;-49
2022/09/30 09:05:27;;;;;;;9.10;8.40;;;;;;;;;;5053912;28;24515;-47
2022/09/30 09:08:11;;;;;;;6.50;5.90;;;;;;;;;;5055413;28;24433;-48
2022/09/30 09:10:43;;;;;;;6.03;5.63;;;;;;;;;;5048931;28;25028;-47
2022/09/30 09:13:27;;;;;;;6.57;6.07;;;;;;;;;;5057597;28;24980;-47
2022/09/30 09:15:52;;;;;;;6.10;5.60;;;;;;;;;;5057832;28;25070;-47
2022/09/30 09:18:32;;;;;;;7.80;7.20;;;;;;;;;;5063324;28;24435;-47
2022/09/30 09:20:59;;;;;;;6.90;6.40;;;;;;;;;;5058145;28;25194;-47
2022/09/30 09:23:24;;;;;;;6.95;6.45;;;;;;;;;;5054018;28;24488;-47
2022/09/30 09:25:52;;;;;;;6.38;5.88;;;;;;;;;;5052015;28;24427;-47
2022/09/30 09:28:24;;;;;;;6.30;5.80;;;;;;;;;;5061569;28;24421;-46
2022/09/30 09:30:53;;;;;;;6.22;5.72;;;;;;;;;;5054335;28;24436;-47
2022/09/30 09:33:21;;;;;;;5.40;5.00;;;;;;;;;;5057942;28;24488;-47
2022/09/30 09:35:49;;;;;;;5.90;5.50;;;;;;;;;;5063825;28;24449;-47
2022/09/30 09:38:24;;;;;;;6.97;6.40;;;;;;;;;;5057044;28;24415;-46
2022/09/30 09:40:58;;;;;;;6.80;6.20;;;;;;;;;;5060545;28;25036;-47
2022/09/30 09:43:42;;;;;;;7.10;6.50;;;;;;;;;;5066088;28;24431;-47
2022/09/30 09:46:07;;;;;;;5.75;5.35;;;;;;;;;;5066649;28;24448;-47
2022/09/30 09:48:34;;;;;;;5.68;5.28;;;;;;;;;;5066790;28;24414;-47
2022/09/30 09:50:59;;;;;;;6.38;5.88;;;;;;;;;;5066926;28;24409;-48
2022/09/30 09:53:25;;;;;;;5.97;5.47;;;;;;;;;;5066635;28;24496;-47
2022/09/30 09:55:53;;;;;;;5.20;4.77;;;;;;;;;;5066495;28;24397;-47
2022/09/30 09:58:18;;;;;;;5.63;5.20;;;;;;;;;;5067016;28;24429;-47
2022/09/30 10:03:17;;;;;;;5.22;4.82;;;;;;;;;;5066416;28;24438;-47
2022/09/30 10:05:42;;;;;;;5.63;5.28;;;;;;;;;;5066530;28;24436;-47
2022/09/30 10:08:25;;;;;;;5.93;5.45;;;;;;;;;;5066500;28;24436;-46
2022/09/30 10:11:02;;;;;;;5.07;4.78;;;;;;;;;;5066281;28;24804;-48
2022/09/30 10:13:31;;;;;;;5.00;4.60;;;;;;;;;;5066310;28;24406;-48
2022/09/30 10:15:58;;;;;;;4.90;4.50;;;;;;;;;;5067053;28;25059;-48
2022/09/30 10:18:28;;;;;;;4.70;4.35;;;;;;;;;;5066495;28;24488;-47
2022/09/30 10:21:11;;;;;;;4.43;4.13;;;;;;;;;;5066507;28;24834;-48
2022/09/30 10:23:38;;;;;;;4.30;4.00;;;;;;;;;;5064320;28;24472;-47
2022/09/30 10:26:12;;;;;;;4.32;4.03;;;;;;;;;;5066282;28;25051;-48
2022/09/30 10:28:48;;;;;;;3.72;3.53;;;;;;;;;;5066412;28;25267;-47
2022/09/30 10:31:13;;;;;;;5.15;4.75;;;;;;;;;;5066664;28;24532;-47
2022/09/30 10:33:50;;;;;;;5.25;4.85;;;;;;;;;;5067254;28;24505;-47
2022/09/30 10:36:15;;;;;;;4.30;4.00;;;;;;;;;;5070420;28;24801;-46
2022/09/30 10:38:47;;;;;;;5.10;4.70;;;;;;;;;;5070341;28;24716;-47
2022/09/30 10:41:12;;;;;;;4.30;4.00;;;;;;;;;;5070325;28;24761;-47
2022/09/30 10:43:47;;;;;;;4.70;4.40;;;;;;;;;;5069793;28;24990;-47
2022/09/30 10:46:21;;;;;;;4.60;4.30;;;;;;;;;;5070430;28;24420;-47
2022/09/30 10:48:47;;;;;;;4.68;4.32;;;;;;;;;;5069850;28;24482;-46
2022/09/30 10:51:23;;;;;;;4.60;4.20;;;;;;;;;;5070291;28;24537;-46
2022/09/30 10:53:48;;;;;;;3.80;3.50;;;;;;;;;;5069549;28;24423;-46
2022/09/30 10:56:30;;;;;;;3.40;3.20;;;;;;;;;;5070210;28;24394;-47
2022/09/30 10:58:56;;;;;;;5.30;4.90;;;;;;;;;;5069919;28;24889;-47
2022/09/30 11:01:21;;;;;;;4.30;4.00;;;;;;;;;;5069891;28;24425;-47
2022/09/30 11:03:52;;;;;;;4.63;4.22;;;;;;;;;;5069338;28;24467;-47
2022/09/30 11:06:19;;;;;;;4.00;3.70;;;;;;;;;;5069774;28;24410;-47
2022/09/30 11:08:55;;;;;;;4.97;4.65;;;;;;;;;;5069558;28;24426;-47
2022/09/30 11:11:23;;;;;;;5.00;4.60;;;;;;;;;;5069818;28;24840;-47
2022/09/30 11:14:06;;;;;;;5.00;4.60;;;;;;;;;;5069206;28;24769;-47
2022/09/30 11:16:46;;;;;;;4.68;4.28;;;;;;;;;;5069702;28;24436;-47
2022/09/30 11:19:18;;;;;;;3.70;3.40;;;;;;;;;;5069733;28;24398;-47
2022/09/30 11:21:50;;;;;;;4.00;3.80;;;;;;;;;;5069339;28;24410;-49
2022/09/30 11:24:28;;;;;;;4.00;3.70;;;;;;;;;;5069145;28;24456;-47
2022/09/30 11:27:02;;;;;;;3.35;3.15;;;;;;;;;;5069241;28;24745;-48
2022/09/30 11:29:39;;;;;;;3.40;3.10;;;;;;;;;;5069381;28;24773;-48
2022/09/30 11:32:09;;;;;;;3.13;2.92;;;;;;;;;;5069113;28;24408;-48
2022/09/30 11:34:42;;;;;;;3.22;3.03;;;;;;;;;;5069567;28;24450;-48
2022/09/30 11:37:07;;;;;;;3.20;3.00;;;;;;;;;;5068099;28;24517;-48
2022/09/30 11:39:43;;;;;;;3.70;3.40;;;;;;;;;;5068110;28;24505;-48
2022/09/30 11:42:18;;;;;;;2.80;2.60;;;;;;;;;;5068534;28;24443;-47
2022/09/30 11:44:43;;;;;;;3.13;2.92;;;;;;;;;;5068110;28;24399;-48
2022/09/30 11:47:32;;;;;;;3.05;2.85;;;;;;;;;;5068988;28;24861;-48
2022/09/30 11:50:13;;;;;;;3.20;2.90;;;;;;;;;;5068105;28;24423;-48
2022/09/30 11:52:48;;;;;;;3.10;2.90;;;;;;;;;;5068521;28;25055;-49
2022/09/30 11:55:20;;;;;;;2.70;2.40;;;;;;;;;;5067903;28;24453;-47
2022/09/30 11:57:51;;;;;;;2.78;2.58;;;;;;;;;;5068675;28;24468;-47
2022/09/30 12:00:17;;;;;;;3.20;3.00;;;;;;;;;;5068784;28;24410;-47
2022/09/30 12:02:43;;;;;;;2.70;2.50;;;;;;;;;;5068404;28;24464;-47
2022/09/30 12:05:09;;;;;;;2.80;2.50;;;;;;;;;;5069047;28;24973;-48
2022/09/30 12:07:35;;;;;;;2.80;2.60;;;;;;;;;;5068794;28;24391;-48
2022/09/30 12:10:04;;;;;;;3.60;2.60;;;;;;;;;;5068467;28;24494;-47
2022/09/30 12:12:31;;;;;;;2.60;2.40;;;;;;;;;;5068511;28;24480;-48
2022/09/30 12:14:59;;;;;;;2.28;2.17;;;;;;;;;;5068130;28;24446;-46
2022/09/30 12:17:31;;;;;;;2.30;2.20;;;;;;;;;;5068440;28;24454;-46
2022/09/30 12:19:58;;;;;;;1.95;1.85;;;;;;;;;;5068535;28;24379;-46
2022/09/30 12:22:27;;;;;;;2.30;2.10;;;;;;;;;;5067659;28;24933;-46
2022/09/30 12:24:52;;;;;;;2.60;2.40;;;;;;;;;;5068393;28;24467;-46
2022/09/30 12:27:35;;;;;;;2.40;2.20;;;;;;;;;;5068060;28;24945;-47
2022/09/30 12:30:18;;;;;;;2.25;2.10;;;;;;;;;;5068202;28;24426;-46
2022/09/30 12:32:59;;;;;;;2.20;2.10;;;;;;;;;;5067749;28;24481;-47
2022/09/30 12:35:27;;;;;;;2.22;2.13;;;;;;;;;;5068134;28;24523;-46
2022/09/30 12:37:54;;;;;;;2.40;2.30;;;;;;;;;;5068290;28;24411;-47
2022/09/30 12:40:38;;;;;;;2.33;2.22;;;;;;;;;;5067950;28;25290;-47
2022/09/30 12:43:09;;;;;;;2.47;2.28;;;;;;;;;;5067624;28;24525;-47
2022/09/30 12:45:50;;;;;;;2.40;2.30;;;;;;;;;;5068056;28;24405;-47
2022/09/30 12:48:17;;;;;;;2.20;2.10;;;;;;;;;;5067773;28;24395;-47
2022/09/30 12:50:51;;;;;;;1.80;1.70;;;;;;;;;;5067770;28;24474;-46
2022/09/30 12:53:25;;;;;;;2.30;2.10;;;;;;;;;;5067585;28;24420;-46
2022/09/30 12:55:51;;;;;;;2.92;2.60;;;;;;;;;;5067372;28;24440;-46
2022/09/30 12:58:21;;;;;;;2.50;2.30;;;;;;;;;;5067842;28;24474;-47
2022/09/30 13:01:05;;;;;;;2.85;2.25;;;;;;;;;;5067581;28;24925;-46
2022/09/30 13:03:42;;;;;;;2.40;2.20;;;;;;;;;;5065076;28;25039;-47
2022/09/30 13:06:07;;;;;;;2.58;2.40;;;;;;;;;;5067546;28;24410;-47
2022/09/30 13:08:40;;;;;;;2.90;2.70;;;;;;;;;;5067791;28;24422;-48
2022/09/30 13:11:06;;;;;;;2.30;2.20;;;;;;;;;;5067194;28;24806;-47
2022/09/30 13:13:33;;;;;;;2.42;2.22;;;;;;;;;;5066995;28;24440;-47
2022/09/30 13:16:03;;;;;;;2.42;2.33;;;;;;;;;;5067233;28;24470;-48
2022/09/30 13:18:31;;;;;;;3.60;3.30;;;;;;;;;;5067507;28;24399;-47
2022/09/30 13:21:09;;;;;;;2.58;2.38;;;;;;;;;;5067423;28;24387;-47
2022/09/30 13:23:37;;;;;;;2.90;2.70;;;;;;;;;;5067101;28;24437;-48
2022/09/30 13:26:04;;;;;;;2.20;2.10;;;;;;;;;;5067052;28;24417;-47
2022/09/30 13:28:37;;;;;;;2.67;2.47;;;;;;;;;;5067668;28;24460;-46
2022/09/30 13:31:13;;;;;;;2.22;2.13;;;;;;;;;;5067162;28;24717;-48
2022/09/30 13:33:45;;;;;;;3.20;3.00;;;;;;;;;;5066500;28;24418;-47
2022/09/30 13:36:23;;;;;;;2.60;2.40;;;;;;;;;;5067077;28;24964;-48
2022/09/30 13:39:04;;;;;;;2.17;2.07;;;;;;;;;;5066559;28;24390;-48
2022/09/30 13:41:31;;;;;;;2.60;2.42;;;;;;;;;;5067339;28;24387;-47
2022/09/30 13:44:03;;;;;;;2.80;2.60;;;;;;;;;;5066386;28;24394;-48
2022/09/30 13:46:45;;;;;;;2.70;2.50;;;;;;;;;;5067120;28;24532;-47
2022/09/30 13:49:10;;;;;;;2.40;2.30;;;;;;;;;;5067061;28;24490;-48
2022/09/30 13:51:39;;;;;;;2.15;2.05;;;;;;;;;;5066966;28;24494;-47
2022/09/30 13:54:07;;;;;;;2.90;2.70;;;;;;;;;;5064283;28;24415;-48
2022/09/30 13:56:33;;;;;;;2.40;2.30;;;;;;;;;;5064912;28;24422;-48
2022/09/30 13:58:59;;;;;;;2.00;1.90;;;;;;;;;;5066055;28;24455;-48
2022/09/30 14:01:52;;;;;;;2.10;2.00;;;;;;;;;;5064866;28;24595;-49
2022/09/30 14:04:29;;;;;;;2.30;2.10;;;;;;;;;;5064461;28;24419;-48
2022/09/30 14:06:54;;;;;;;2.10;2.00;;;;;;;;;;5064678;28;24462;-48
2022/09/30 14:09:50;;;;;;;2.70;2.50;;;;;;;;;;5065428;28;24426;-47
2022/09/30 14:12:24;;;;;;;2.42;2.22;;;;;;;;;;5052952;28;24844;-48
2022/09/30 14:14:49;;;;;;;2.08;1.98;;;;;;;;;;5048570;28;24526;-47
2022/09/30 14:17:23;;;;;;;2.00;1.90;;;;;;;;;;5066448;28;24495;-48
2022/09/30 14:19:57;;;;;;;2.20;2.10;;;;;;;;;;5065182;28;24415;-47
2022/09/30 14:22:25;;;;;;;2.13;2.03;;;;;;;;;;5066418;28;24399;-48
2022/09/30 14:24:51;;;;;;;2.38;2.00;;;;;;;;;;5063534;28;24429;-48
2022/09/30 14:27:25;;;;;;;2.23;2.03;;;;;;;;;;5066579;28;24756;-47
2022/09/30 14:30:03;;;;;;;2.40;2.20;;;;;;;;;;5065377;28;24461;-47
2022/09/30 14:32:39;;;;;;;1.80;1.70;;;;;;;;;;5066521;28;24456;-47
2022/09/30 14:35:06;;;;;;;2.60;2.40;;;;;;;;;;5064820;28;24431;-48
2022/09/30 14:37:35;;;;;;;2.00;1.90;;;;;;;;;;5066790;28;24456;-47
2022/09/30 14:40:00;;;;;;;2.30;2.20;;;;;;;;;;5064708;28;24414;-47
2022/09/30 14:42:37;;;;;;;2.50;2.30;;;;;;;;;;5066135;28;24835;-47
2022/09/30 14:45:03;;;;;;;1.85;1.75;;;;;;;;;;5064170;28;24418;-46
2022/09/30 14:47:39;;;;;;;2.13;2.03;;;;;;;;;;5066458;28;24444;-46
2022/09/30 14:50:15;;;;;;;2.10;2.00;;;;;;;;;;5064807;28;24445;-47